sensor_id;sensor_type;location;lat;lon;timestamp;P1;durP1;ratioP1;P2;durP2;ratioP2
9904;SDS011;4991;43.566;27.820;2023-03-11T00:00:23;8.30;;;4.23;;
9904;SDS011;4991;43.566;27.820;2023-03-11T00:02:50;8.47;;;3.70;;
9904;SDS011;4991;43.566;27.820;2023-03-11T00:05:24;8.60;;;3.63;;
9904;SDS011;4991;43.566;27.820;2023-03-11T00:07:52;8.57;;;4.40;;
9904;SDS011;4991;43.566;27.820;2023-03-11T00:10:19;11.87;;;4.30;;
9904;SDS011;4991;43.566;27.820;2023-03-11T00:12:52;10.93;;;4.10;;
9904;SDS011;4991;43.566;27.820;2023-03-11T00:15:18;12.90;;;4.50;;
9904;SDS011;4991;43.566;27.820;2023-03-11T00:17:45;8.07;;;3.90;;
9904;SDS011;4991;43.566;27.820;2023-03-11T00:20:20;7.70;;;4.67;;
9904;SDS011;4991;43.566;27.820;2023-03-11T00:22:50;10.13;;;4.60;;
9904;SDS011;4991;43.566;27.820;2023-03-11T00:25:17;7.03;;;4.03;;
9904;SDS011;4991;43.566;27.820;2023-03-11T00:27:43;15.57;;;4.90;;
9904;SDS011;4991;43.566;27.820;2023-03-11T00:30:11;10.10;;;4.80;;
9904;SDS011;4991;43.566;27.820;2023-03-11T00:32:38;10.57;;;4.77;;
9904;SDS011;4991;43.566;27.820;2023-03-11T00:35:04;8.60;;;4.40;;
9904;SDS011;4991;43.566;27.820;2023-03-11T00:37:30;18.87;;;5.17;;
9904;SDS011;4991;43.566;27.820;2023-03-11T00:39:56;11.23;;;4.70;;
9904;SDS011;4991;43.566;27.820;2023-03-11T00:42:21;10.10;;;5.00;;
9904;SDS011;4991;43.566;27.820;2023-03-11T00:44:47;10.77;;;4.70;;
9904;SDS011;4991;43.566;27.820;2023-03-11T00:47:13;10.90;;;4.97;;
9904;SDS011;4991;43.566;27.820;2023-03-11T00:49:38;11.13;;;4.93;;
9904;SDS011;4991;43.566;27.820;2023-03-11T00:52:04;15.23;;;5.60;;
9904;SDS011;4991;43.566;27.820;2023-03-11T00:54:30;14.47;;;6.50;;
9904;SDS011;4991;43.566;27.820;2023-03-11T00:56:56;11.27;;;6.37;;
9904;SDS011;4991;43.566;27.820;2023-03-11T00:59:21;14.03;;;7.30;;
9904;SDS011;4991;43.566;27.820;2023-03-11T01:01:47;14.27;;;8.03;;
9904;SDS011;4991;43.566;27.820;2023-03-11T01:04:13;21.60;;;8.90;;
9904;SDS011;4991;43.566;27.820;2023-03-11T01:06:39;16.87;;;7.67;;
9904;SDS011;4991;43.566;27.820;2023-03-11T01:09:04;13.03;;;7.73;;
9904;SDS011;4991;43.566;27.820;2023-03-11T01:11:31;18.97;;;7.37;;
9904;SDS011;4991;43.566;27.820;2023-03-11T01:13:56;15.17;;;7.17;;
9904;SDS011;4991;43.566;27.820;2023-03-11T01:16:22;15.10;;;6.97;;
9904;SDS011;4991;43.566;27.820;2023-03-11T01:18:48;19.17;;;7.77;;
9904;SDS011;4991;43.566;27.820;2023-03-11T01:21:14;14.77;;;7.03;;
9904;SDS011;4991;43.566;27.820;2023-03-11T01:23:40;17.57;;;7.67;;
9904;SDS011;4991;43.566;27.820;2023-03-11T01:26:06;14.40;;;6.77;;
9904;SDS011;4991;43.566;27.820;2023-03-11T01:28:32;17.90;;;6.80;;
9904;SDS011;4991;43.566;27.820;2023-03-11T01:30:57;14.47;;;5.97;;
9904;SDS011;4991;43.566;27.820;2023-03-11T01:33:23;21.63;;;6.80;;
9904;SDS011;4991;43.566;27.820;2023-03-11T01:35:48;11.47;;;5.80;;
9904;SDS011;4991;43.566;27.820;2023-03-11T01:38:14;14.20;;;6.20;;
9904;SDS011;4991;43.566;27.820;2023-03-11T01:40:45;11.33;;;5.73;;
9904;SDS011;4991;43.566;27.820;2023-03-11T01:48:44;8.90;;;4.50;;
9904;SDS011;4991;43.566;27.820;2023-03-11T01:51:12;10.20;;;4.30;;
9904;SDS011;4991;43.566;27.820;2023-03-11T01:53:39;11.53;;;4.83;;
9904;SDS011;4991;43.566;27.820;2023-03-11T01:56:05;13.03;;;4.67;;
9904;SDS011;4991;43.566;27.820;2023-03-11T01:58:33;8.63;;;4.37;;
9904;SDS011;4991;43.566;27.820;2023-03-11T02:01:02;7.33;;;4.07;;
9904;SDS011;4991;43.566;27.820;2023-03-11T02:03:29;9.77;;;4.20;;
9904;SDS011;4991;43.566;27.820;2023-03-11T02:05:58;9.47;;;4.23;;
9904;SDS011;4991;43.566;27.820;2023-03-11T02:08:26;9.77;;;4.20;;
9904;SDS011;4991;43.566;27.820;2023-03-11T02:10:54;14.03;;;5.27;;
9904;SDS011;4991;43.566;27.820;2023-03-11T02:13:21;11.20;;;4.67;;
9904;SDS011;4991;43.566;27.820;2023-03-11T02:15:48;15.20;;;5.50;;
9904;SDS011;4991;43.566;27.820;2023-03-11T02:18:14;10.93;;;4.23;;
9904;SDS011;4991;43.566;27.820;2023-03-11T02:29:19;13.30;;;5.57;;
9904;SDS011;4991;43.566;27.820;2023-03-11T02:31:45;14.50;;;4.73;;
9904;SDS011;4991;43.566;27.820;2023-03-11T02:34:31;11.10;;;5.43;;
9904;SDS011;4991;43.566;27.820;2023-03-11T02:36:59;13.30;;;4.93;;
9904;SDS011;4991;43.566;27.820;2023-03-11T02:39:31;13.37;;;5.20;;
9904;SDS011;4991;43.566;27.820;2023-03-11T02:41:58;10.47;;;5.00;;
9904;SDS011;4991;43.566;27.820;2023-03-11T02:44:26;13.80;;;5.40;;
9904;SDS011;4991;43.566;27.820;2023-03-11T02:46:52;14.23;;;5.63;;
9904;SDS011;4991;43.566;27.820;2023-03-11T02:49:19;15.87;;;5.70;;
9904;SDS011;4991;43.566;27.820;2023-03-11T02:51:45;14.53;;;5.70;;
9904;SDS011;4991;43.566;27.820;2023-03-11T02:54:11;13.17;;;5.93;;
9904;SDS011;4991;43.566;27.820;2023-03-11T02:56:36;10.97;;;5.87;;
9904;SDS011;4991;43.566;27.820;2023-03-11T02:59:02;13.57;;;5.07;;
9904;SDS011;4991;43.566;27.820;2023-03-11T03:01:27;10.00;;;4.70;;
9904;SDS011;4991;43.566;27.820;2023-03-11T03:03:53;18.80;;;6.13;;
9904;SDS011;4991;43.566;27.820;2023-03-11T03:06:20;12.93;;;5.80;;
9904;SDS011;4991;43.566;27.820;2023-03-11T03:08:45;17.60;;;5.73;;
9904;SDS011;4991;43.566;27.820;2023-03-11T03:11:11;16.50;;;6.03;;
9904;SDS011;4991;43.566;27.820;2023-03-11T03:13:37;21.20;;;6.33;;
9904;SDS011;4991;43.566;27.820;2023-03-11T03:16:02;12.43;;;5.90;;
9904;SDS011;4991;43.566;27.820;2023-03-11T03:18:29;11.57;;;6.00;;
9904;SDS011;4991;43.566;27.820;2023-03-11T03:20:54;18.10;;;6.57;;
9904;SDS011;4991;43.566;27.820;2023-03-11T03:23:20;17.70;;;6.67;;
9904;SDS011;4991;43.566;27.820;2023-03-11T03:25:45;13.93;;;6.43;;
9904;SDS011;4991;43.566;27.820;2023-03-11T03:28:11;13.80;;;6.13;;
9904;SDS011;4991;43.566;27.820;2023-03-11T03:30:37;14.00;;;7.07;;
9904;SDS011;4991;43.566;27.820;2023-03-11T03:33:04;16.50;;;7.77;;
9904;SDS011;4991;43.566;27.820;2023-03-11T03:35:29;19.07;;;7.67;;
9904;SDS011;4991;43.566;27.820;2023-03-11T03:37:57;22.73;;;8.20;;
9904;SDS011;4991;43.566;27.820;2023-03-11T03:40:23;14.43;;;6.97;;
9904;SDS011;4991;43.566;27.820;2023-03-11T03:42:49;15.23;;;6.77;;
9904;SDS011;4991;43.566;27.820;2023-03-11T03:45:15;17.47;;;7.07;;
9904;SDS011;4991;43.566;27.820;2023-03-11T03:47:40;16.50;;;7.07;;
9904;SDS011;4991;43.566;27.820;2023-03-11T03:50:07;18.27;;;6.90;;
9904;SDS011;4991;43.566;27.820;2023-03-11T03:52:34;17.27;;;7.67;;
9904;SDS011;4991;43.566;27.820;2023-03-11T03:55:01;15.23;;;7.60;;
9904;SDS011;4991;43.566;27.820;2023-03-11T03:57:27;15.07;;;7.50;;
9904;SDS011;4991;43.566;27.820;2023-03-11T03:59:54;19.00;;;8.43;;
9904;SDS011;4991;43.566;27.820;2023-03-11T04:02:19;17.20;;;7.13;;
9904;SDS011;4991;43.566;27.820;2023-03-11T04:04:45;18.10;;;7.97;;
9904;SDS011;4991;43.566;27.820;2023-03-11T04:07:11;16.30;;;7.93;;
9904;SDS011;4991;43.566;27.820;2023-03-11T04:09:38;21.73;;;8.53;;
9904;SDS011;4991;43.566;27.820;2023-03-11T04:12:10;22.67;;;8.03;;
9904;SDS011;4991;43.566;27.820;2023-03-11T04:14:38;13.70;;;8.30;;
9904;SDS011;4991;43.566;27.820;2023-03-11T04:17:04;16.60;;;7.17;;
9904;SDS011;4991;43.566;27.820;2023-03-11T04:19:29;16.43;;;7.77;;
9904;SDS011;4991;43.566;27.820;2023-03-11T04:21:55;17.03;;;7.87;;
9904;SDS011;4991;43.566;27.820;2023-03-11T04:24:20;13.63;;;6.63;;
9904;SDS011;4991;43.566;27.820;2023-03-11T04:26:46;11.77;;;6.30;;
9904;SDS011;4991;43.566;27.820;2023-03-11T04:29:12;14.03;;;5.93;;
9904;SDS011;4991;43.566;27.820;2023-03-11T04:31:37;8.70;;;5.20;;
9904;SDS011;4991;43.566;27.820;2023-03-11T04:34:03;13.57;;;4.97;;
9904;SDS011;4991;43.566;27.820;2023-03-11T04:36:28;12.20;;;4.77;;
9904;SDS011;4991;43.566;27.820;2023-03-11T04:38:55;12.50;;;4.67;;
9904;SDS011;4991;43.566;27.820;2023-03-11T04:41:21;19.10;;;6.27;;
9904;SDS011;4991;43.566;27.820;2023-03-11T04:43:47;12.37;;;4.70;;
9904;SDS011;4991;43.566;27.820;2023-03-11T04:46:13;9.17;;;5.03;;
9904;SDS011;4991;43.566;27.820;2023-03-11T04:48:39;11.13;;;4.77;;
9904;SDS011;4991;43.566;27.820;2023-03-11T04:51:04;12.50;;;5.43;;
9904;SDS011;4991;43.566;27.820;2023-03-11T04:53:31;11.07;;;5.03;;
9904;SDS011;4991;43.566;27.820;2023-03-11T04:55:57;12.00;;;5.80;;
9904;SDS011;4991;43.566;27.820;2023-03-11T04:58:23;10.93;;;4.40;;
9904;SDS011;4991;43.566;27.820;2023-03-11T05:00:50;11.33;;;4.87;;
9904;SDS011;4991;43.566;27.820;2023-03-11T05:03:16;11.33;;;4.93;;
9904;SDS011;4991;43.566;27.820;2023-03-11T05:05:43;10.70;;;4.83;;
9904;SDS011;4991;43.566;27.820;2023-03-11T05:08:09;16.37;;;6.23;;
9904;SDS011;4991;43.566;27.820;2023-03-11T05:10:34;13.93;;;6.50;;
9904;SDS011;4991;43.566;27.820;2023-03-11T05:13:00;11.47;;;5.20;;
9904;SDS011;4991;43.566;27.820;2023-03-11T05:15:28;10.33;;;5.10;;
9904;SDS011;4991;43.566;27.820;2023-03-11T05:17:55;11.80;;;5.43;;
9904;SDS011;4991;43.566;27.820;2023-03-11T05:20:21;7.77;;;4.30;;
9904;SDS011;4991;43.566;27.820;2023-03-11T05:22:47;12.30;;;4.83;;
9904;SDS011;4991;43.566;27.820;2023-03-11T05:25:12;10.53;;;4.30;;
9904;SDS011;4991;43.566;27.820;2023-03-11T05:27:38;12.80;;;4.80;;
9904;SDS011;4991;43.566;27.820;2023-03-11T05:30:04;14.83;;;5.20;;
9904;SDS011;4991;43.566;27.820;2023-03-11T05:32:30;11.57;;;5.17;;
9904;SDS011;4991;43.566;27.820;2023-03-11T05:34:56;8.90;;;4.40;;
9904;SDS011;4991;43.566;27.820;2023-03-11T05:37:21;11.53;;;4.53;;
9904;SDS011;4991;43.566;27.820;2023-03-11T05:39:47;9.33;;;4.40;;
9904;SDS011;4991;43.566;27.820;2023-03-11T05:42:12;12.87;;;4.40;;
9904;SDS011;4991;43.566;27.820;2023-03-11T05:44:38;9.80;;;4.50;;
9904;SDS011;4991;43.566;27.820;2023-03-11T05:47:04;11.90;;;4.57;;
9904;SDS011;4991;43.566;27.820;2023-03-11T05:49:29;11.50;;;4.07;;
9904;SDS011;4991;43.566;27.820;2023-03-11T05:51:55;15.93;;;6.27;;
9904;SDS011;4991;43.566;27.820;2023-03-11T05:54:21;9.10;;;4.33;;
9904;SDS011;4991;43.566;27.820;2023-03-11T05:56:46;6.17;;;3.90;;
9904;SDS011;4991;43.566;27.820;2023-03-11T05:59:13;13.13;;;5.03;;
9904;SDS011;4991;43.566;27.820;2023-03-11T06:01:39;13.27;;;5.27;;
9904;SDS011;4991;43.566;27.820;2023-03-11T06:04:05;14.13;;;7.17;;
9904;SDS011;4991;43.566;27.820;2023-03-11T06:06:31;16.37;;;8.37;;
9904;SDS011;4991;43.566;27.820;2023-03-11T06:08:57;14.30;;;6.83;;
9904;SDS011;4991;43.566;27.820;2023-03-11T06:11:23;13.17;;;5.10;;
9904;SDS011;4991;43.566;27.820;2023-03-11T06:13:53;11.70;;;4.97;;
9904;SDS011;4991;43.566;27.820;2023-03-11T06:16:20;12.70;;;5.40;;
9904;SDS011;4991;43.566;27.820;2023-03-11T06:18:47;14.20;;;5.40;;
9904;SDS011;4991;43.566;27.820;2023-03-11T06:21:17;11.13;;;5.00;;
9904;SDS011;4991;43.566;27.820;2023-03-11T06:23:47;11.67;;;4.90;;
9904;SDS011;4991;43.566;27.820;2023-03-11T06:26:14;13.97;;;5.27;;
9904;SDS011;4991;43.566;27.820;2023-03-11T06:28:42;11.70;;;5.17;;
9904;SDS011;4991;43.566;27.820;2023-03-11T06:31:09;10.20;;;4.53;;
9904;SDS011;4991;43.566;27.820;2023-03-11T06:33:38;23.33;;;7.53;;
9904;SDS011;4991;43.566;27.820;2023-03-11T06:36:04;14.47;;;6.10;;
9904;SDS011;4991;43.566;27.820;2023-03-11T06:38:30;17.13;;;6.90;;
9904;SDS011;4991;43.566;27.820;2023-03-11T06:41:01;11.80;;;5.10;;
9904;SDS011;4991;43.566;27.820;2023-03-11T06:43:28;9.90;;;4.47;;
9904;SDS011;4991;43.566;27.820;2023-03-11T06:45:55;12.47;;;4.63;;
9904;SDS011;4991;43.566;27.820;2023-03-11T06:48:21;14.87;;;6.00;;
9904;SDS011;4991;43.566;27.820;2023-03-11T06:50:57;25.00;;;10.57;;
9904;SDS011;4991;43.566;27.820;2023-03-11T06:53:24;9.30;;;4.03;;
9904;SDS011;4991;43.566;27.820;2023-03-11T06:55:59;12.20;;;4.03;;
9904;SDS011;4991;43.566;27.820;2023-03-11T06:58:32;11.60;;;4.90;;
9904;SDS011;4991;43.566;27.820;2023-03-11T07:01:00;13.47;;;4.03;;
9904;SDS011;4991;43.566;27.820;2023-03-11T07:03:28;9.43;;;4.10;;
9904;SDS011;4991;43.566;27.820;2023-03-11T07:05:54;15.50;;;4.23;;
9904;SDS011;4991;43.566;27.820;2023-03-11T07:08:19;13.00;;;4.07;;
9904;SDS011;4991;43.566;27.820;2023-03-11T07:10:45;10.07;;;4.37;;
9904;SDS011;4991;43.566;27.820;2023-03-11T07:13:12;11.13;;;4.30;;
9904;SDS011;4991;43.566;27.820;2023-03-11T07:15:38;10.30;;;4.23;;
9904;SDS011;4991;43.566;27.820;2023-03-11T07:18:04;12.57;;;4.57;;
9904;SDS011;4991;43.566;27.820;2023-03-11T07:20:29;7.43;;;4.03;;
9904;SDS011;4991;43.566;27.820;2023-03-11T07:22:55;12.83;;;4.00;;
9904;SDS011;4991;43.566;27.820;2023-03-11T07:25:20;9.27;;;4.00;;
9904;SDS011;4991;43.566;27.820;2023-03-11T07:27:46;13.57;;;4.30;;
9904;SDS011;4991;43.566;27.820;2023-03-11T07:30:13;14.40;;;4.70;;
9904;SDS011;4991;43.566;27.820;2023-03-11T07:32:40;12.50;;;4.20;;
9904;SDS011;4991;43.566;27.820;2023-03-11T07:35:06;16.07;;;4.37;;
9904;SDS011;4991;43.566;27.820;2023-03-11T07:37:32;12.53;;;4.40;;
9904;SDS011;4991;43.566;27.820;2023-03-11T07:39:57;17.70;;;4.53;;
9904;SDS011;4991;43.566;27.820;2023-03-11T07:42:23;13.83;;;4.70;;
9904;SDS011;4991;43.566;27.820;2023-03-11T07:44:49;14.27;;;4.40;;
9904;SDS011;4991;43.566;27.820;2023-03-11T07:47:16;8.37;;;3.33;;
9904;SDS011;4991;43.566;27.820;2023-03-11T07:49:41;14.13;;;4.60;;
9904;SDS011;4991;43.566;27.820;2023-03-11T07:52:07;10.10;;;4.07;;
9904;SDS011;4991;43.566;27.820;2023-03-11T07:54:32;10.47;;;4.10;;
9904;SDS011;4991;43.566;27.820;2023-03-11T07:57:00;10.50;;;3.83;;
9904;SDS011;4991;43.566;27.820;2023-03-11T07:59:27;10.30;;;3.50;;
9904;SDS011;4991;43.566;27.820;2023-03-11T08:01:53;15.30;;;3.90;;
9904;SDS011;4991;43.566;27.820;2023-03-11T08:04:19;12.80;;;4.07;;
9904;SDS011;4991;43.566;27.820;2023-03-11T08:06:45;11.70;;;3.80;;
9904;SDS011;4991;43.566;27.820;2023-03-11T08:09:12;11.30;;;3.73;;
9904;SDS011;4991;43.566;27.820;2023-03-11T08:11:38;13.43;;;4.03;;
9904;SDS011;4991;43.566;27.820;2023-03-11T08:14:04;13.80;;;3.93;;
9904;SDS011;4991;43.566;27.820;2023-03-11T08:16:30;11.43;;;3.93;;
9904;SDS011;4991;43.566;27.820;2023-03-11T08:18:56;9.10;;;3.70;;
9904;SDS011;4991;43.566;27.820;2023-03-11T08:21:22;8.73;;;3.43;;
9904;SDS011;4991;43.566;27.820;2023-03-11T08:23:50;15.33;;;4.03;;
9904;SDS011;4991;43.566;27.820;2023-03-11T08:26:18;10.30;;;4.13;;
9904;SDS011;4991;43.566;27.820;2023-03-11T08:28:46;10.83;;;3.83;;
9904;SDS011;4991;43.566;27.820;2023-03-11T08:31:16;14.30;;;3.70;;
9904;SDS011;4991;43.566;27.820;2023-03-11T08:33:50;10.43;;;3.47;;
9904;SDS011;4991;43.566;27.820;2023-03-11T08:36:19;8.50;;;3.90;;
9904;SDS011;4991;43.566;27.820;2023-03-11T08:38:44;8.27;;;3.20;;
9904;SDS011;4991;43.566;27.820;2023-03-11T08:41:10;12.93;;;4.00;;
9904;SDS011;4991;43.566;27.820;2023-03-11T08:43:37;11.30;;;4.07;;
9904;SDS011;4991;43.566;27.820;2023-03-11T08:46:03;6.50;;;3.53;;
9904;SDS011;4991;43.566;27.820;2023-03-11T08:48:33;8.83;;;3.53;;
9904;SDS011;4991;43.566;27.820;2023-03-11T08:51:00;7.93;;;3.33;;
9904;SDS011;4991;43.566;27.820;2023-03-11T08:53:27;15.27;;;5.03;;
9904;SDS011;4991;43.566;27.820;2023-03-11T08:55:53;11.80;;;4.37;;
9904;SDS011;4991;43.566;27.820;2023-03-11T08:58:18;6.30;;;2.10;;
9904;SDS011;4991;43.566;27.820;2023-03-11T09:00:44;3.67;;;1.87;;
9904;SDS011;4991;43.566;27.820;2023-03-11T09:03:11;6.83;;;1.60;;
9904;SDS011;4991;43.566;27.820;2023-03-11T09:05:37;2.90;;;1.53;;
9904;SDS011;4991;43.566;27.820;2023-03-11T09:08:03;2.37;;;1.97;;
9904;SDS011;4991;43.566;27.820;2023-03-11T09:10:28;2.80;;;1.90;;
9904;SDS011;4991;43.566;27.820;2023-03-11T09:12:54;3.70;;;1.40;;
9904;SDS011;4991;43.566;27.820;2023-03-11T09:15:19;1.77;;;1.67;;
9904;SDS011;4991;43.566;27.820;2023-03-11T09:17:45;3.00;;;1.70;;
9904;SDS011;4991;43.566;27.820;2023-03-11T09:20:11;3.57;;;1.73;;
9904;SDS011;4991;43.566;27.820;2023-03-11T09:22:38;2.07;;;1.87;;
9904;SDS011;4991;43.566;27.820;2023-03-11T09:25:03;2.60;;;1.70;;
9904;SDS011;4991;43.566;27.820;2023-03-11T09:27:29;3.33;;;1.97;;
9904;SDS011;4991;43.566;27.820;2023-03-11T09:29:55;2.00;;;1.70;;
9904;SDS011;4991;43.566;27.820;2023-03-11T09:32:21;2.07;;;1.63;;
9904;SDS011;4991;43.566;27.820;2023-03-11T09:34:46;2.80;;;1.50;;
9904;SDS011;4991;43.566;27.820;2023-03-11T09:37:12;1.80;;;1.43;;
9904;SDS011;4991;43.566;27.820;2023-03-11T09:39:37;1.87;;;1.50;;
9904;SDS011;4991;43.566;27.820;2023-03-11T09:55:46;2.17;;;1.50;;
9904;SDS011;4991;43.566;27.820;2023-03-11T09:58:17;2.13;;;1.00;;
9904;SDS011;4991;43.566;27.820;2023-03-11T10:00:59;1.50;;;1.30;;
9904;SDS011;4991;43.566;27.820;2023-03-11T10:03:26;3.03;;;2.07;;
9904;SDS011;4991;43.566;27.820;2023-03-11T10:06:29;5.03;;;3.13;;
9904;SDS011;4991;43.566;27.820;2023-03-11T10:08:58;1.57;;;1.43;;
9904;SDS011;4991;43.566;27.820;2023-03-11T10:27:27;1.30;;;1.20;;
9904;SDS011;4991;43.566;27.820;2023-03-11T10:30:08;1.63;;;1.00;;
9904;SDS011;4991;43.566;27.820;2023-03-11T10:35:32;1.97;;;1.23;;
9904;SDS011;4991;43.566;27.820;2023-03-11T10:37:59;1.17;;;1.07;;
9904;SDS011;4991;43.566;27.820;2023-03-11T10:40:35;1.40;;;0.97;;
9904;SDS011;4991;43.566;27.820;2023-03-11T10:43:15;2.67;;;2.00;;
9904;SDS011;4991;43.566;27.820;2023-03-11T10:45:43;1.47;;;1.17;;
9904;SDS011;4991;43.566;27.820;2023-03-11T10:48:14;2.93;;;0.90;;
9904;SDS011;4991;43.566;27.820;2023-03-11T10:53:14;2.93;;;1.00;;
9904;SDS011;4991;43.566;27.820;2023-03-11T10:55:45;1.20;;;0.90;;
9904;SDS011;4991;43.566;27.820;2023-03-11T10:58:19;1.20;;;1.00;;
9904;SDS011;4991;43.566;27.820;2023-03-11T11:03:42;1.30;;;1.10;;
9904;SDS011;4991;43.566;27.820;2023-03-11T11:06:27;1.27;;;1.17;;
9904;SDS011;4991;43.566;27.820;2023-03-11T11:09:19;1.50;;;1.00;;
9904;SDS011;4991;43.566;27.820;2023-03-11T11:12:05;2.30;;;1.00;;
9904;SDS011;4991;43.566;27.820;2023-03-11T11:14:45;1.80;;;1.30;;
9904;SDS011;4991;43.566;27.820;2023-03-11T11:17:25;1.93;;;0.90;;
9904;SDS011;4991;43.566;27.820;2023-03-11T11:19:55;1.33;;;1.03;;
9904;SDS011;4991;43.566;27.820;2023-03-11T11:22:23;2.20;;;1.37;;
9904;SDS011;4991;43.566;27.820;2023-03-11T11:24:51;1.83;;;1.53;;
9904;SDS011;4991;43.566;27.820;2023-03-11T11:30:00;6.20;;;5.27;;
9904;SDS011;4991;43.566;27.820;2023-03-11T11:32:38;12.30;;;11.00;;
9904;SDS011;4991;43.566;27.820;2023-03-11T11:35:05;11.03;;;9.93;;
9904;SDS011;4991;43.566;27.820;2023-03-11T11:37:42;2.70;;;2.37;;
9904;SDS011;4991;43.566;27.820;2023-03-11T11:43:28;7.83;;;6.00;;
9904;SDS011;4991;43.566;27.820;2023-03-11T11:45:35;1.93;;;1.30;;
9904;SDS011;4991;43.566;27.820;2023-03-11T11:48:10;1.10;;;1.00;;
9904;SDS011;4991;43.566;27.820;2023-03-11T11:51:14;1.53;;;0.90;;
9904;SDS011;4991;43.566;27.820;2023-03-11T11:53:45;1.33;;;1.00;;
9904;SDS011;4991;43.566;27.820;2023-03-11T11:56:21;2.60;;;1.20;;
9904;SDS011;4991;43.566;27.820;2023-03-11T11:58:48;1.10;;;0.90;;
9904;SDS011;4991;43.566;27.820;2023-03-11T12:10:11;2.50;;;1.10;;
9904;SDS011;4991;43.566;27.820;2023-03-11T12:12:42;1.00;;;0.80;;
9904;SDS011;4991;43.566;27.820;2023-03-11T12:15:36;0.90;;;0.80;;
9904;SDS011;4991;43.566;27.820;2023-03-11T12:18:22;1.23;;;0.83;;
9904;SDS011;4991;43.566;27.820;2023-03-11T12:20:55;0.87;;;0.80;;
9904;SDS011;4991;43.566;27.820;2023-03-11T12:23:38;1.00;;;0.90;;
9904;SDS011;4991;43.566;27.820;2023-03-11T12:26:23;0.80;;;0.80;;
9904;SDS011;4991;43.566;27.820;2023-03-11T12:31:21;2.40;;;1.20;;
9904;SDS011;4991;43.566;27.820;2023-03-11T12:33:49;2.90;;;1.40;;
9904;SDS011;4991;43.566;27.820;2023-03-11T12:36:29;1.43;;;1.03;;
9904;SDS011;4991;43.566;27.820;2023-03-11T12:38:58;1.10;;;0.90;;
9904;SDS011;4991;43.566;27.820;2023-03-11T12:41:27;0.97;;;0.87;;
9904;SDS011;4991;43.566;27.820;2023-03-11T12:44:03;0.93;;;0.83;;
9904;SDS011;4991;43.566;27.820;2023-03-11T12:49:22;2.43;;;1.40;;
9904;SDS011;4991;43.566;27.820;2023-03-11T13:07:45;2.07;;;1.23;;
9904;SDS011;4991;43.566;27.820;2023-03-11T13:15:49;4.03;;;1.50;;
9904;SDS011;4991;43.566;27.820;2023-03-11T13:18:16;2.70;;;1.67;;
9904;SDS011;4991;43.566;27.820;2023-03-11T13:20:52;1.80;;;1.70;;
9904;SDS011;4991;43.566;27.820;2023-03-11T13:23:29;2.50;;;1.60;;
9904;SDS011;4991;43.566;27.820;2023-03-11T13:34:24;2.10;;;1.90;;
9904;SDS011;4991;43.566;27.820;2023-03-11T13:37:08;2.13;;;1.97;;
9904;SDS011;4991;43.566;27.820;2023-03-11T13:42:34;2.67;;;2.17;;
9904;SDS011;4991;43.566;27.820;2023-03-11T13:45:08;1.80;;;1.70;;
9904;SDS011;4991;43.566;27.820;2023-03-11T13:47:51;2.00;;;1.80;;
9904;SDS011;4991;43.566;27.820;2023-03-11T13:50:23;2.03;;;1.80;;
9904;SDS011;4991;43.566;27.820;2023-03-11T13:52:52;1.80;;;1.60;;
9904;SDS011;4991;43.566;27.820;2023-03-11T13:55:24;1.70;;;1.60;;
9904;SDS011;4991;43.566;27.820;2023-03-11T13:57:51;2.00;;;1.80;;
9904;SDS011;4991;43.566;27.820;2023-03-11T14:00:20;1.60;;;1.50;;
9904;SDS011;4991;43.566;27.820;2023-03-11T14:02:51;1.67;;;1.57;;
9904;SDS011;4991;43.566;27.820;2023-03-11T14:05:21;3.50;;;1.60;;
9904;SDS011;4991;43.566;27.820;2023-03-11T14:11:00;2.07;;;1.87;;
9904;SDS011;4991;43.566;27.820;2023-03-11T14:13:27;1.83;;;1.73;;
9904;SDS011;4991;43.566;27.820;2023-03-11T14:18:35;3.50;;;1.70;;
9904;SDS011;4991;43.566;27.820;2023-03-11T14:21:04;3.17;;;2.07;;
9904;SDS011;4991;43.566;27.820;2023-03-11T14:23:38;2.77;;;1.93;;
9904;SDS011;4991;43.566;27.820;2023-03-11T14:26:08;2.07;;;1.97;;
9904;SDS011;4991;43.566;27.820;2023-03-11T14:28:42;2.17;;;1.93;;
9904;SDS011;4991;43.566;27.820;2023-03-11T14:31:24;6.50;;;2.40;;
9904;SDS011;4991;43.566;27.820;2023-03-11T14:33:59;2.40;;;2.20;;
9904;SDS011;4991;43.566;27.820;2023-03-11T14:36:38;3.03;;;2.03;;
9904;SDS011;4991;43.566;27.820;2023-03-11T14:39:19;3.47;;;2.70;;
9904;SDS011;4991;43.566;27.820;2023-03-11T14:41:46;3.17;;;2.97;;
9904;SDS011;4991;43.566;27.820;2023-03-11T14:44:11;4.07;;;2.60;;
9904;SDS011;4991;43.566;27.820;2023-03-11T14:46:38;2.93;;;2.73;;
9904;SDS011;4991;43.566;27.820;2023-03-11T14:49:04;3.17;;;2.97;;
9904;SDS011;4991;43.566;27.820;2023-03-11T14:51:32;3.47;;;3.17;;
9904;SDS011;4991;43.566;27.820;2023-03-11T14:54:19;3.60;;;3.30;;
9904;SDS011;4991;43.566;27.820;2023-03-11T14:56:58;3.80;;;3.50;;
9904;SDS011;4991;43.566;27.820;2023-03-11T14:59:42;4.13;;;3.73;;
9904;SDS011;4991;43.566;27.820;2023-03-11T15:02:27;6.23;;;5.70;;
9904;SDS011;4991;43.566;27.820;2023-03-11T15:05:15;3.67;;;3.37;;
9904;SDS011;4991;43.566;27.820;2023-03-11T15:07:48;2.60;;;2.40;;
9904;SDS011;4991;43.566;27.820;2023-03-11T15:10:20;2.50;;;2.30;;
9904;SDS011;4991;43.566;27.820;2023-03-11T15:12:46;3.83;;;2.20;;
9904;SDS011;4991;43.566;27.820;2023-03-11T15:15:20;3.20;;;2.20;;
9904;SDS011;4991;43.566;27.820;2023-03-11T15:17:52;2.90;;;2.47;;
9904;SDS011;4991;43.566;27.820;2023-03-11T15:20:27;2.70;;;2.33;;
9904;SDS011;4991;43.566;27.820;2023-03-11T15:22:58;2.67;;;2.47;;
9904;SDS011;4991;43.566;27.820;2023-03-11T15:25:30;3.30;;;2.50;;
9904;SDS011;4991;43.566;27.820;2023-03-11T15:27:58;2.10;;;2.00;;
9904;SDS011;4991;43.566;27.820;2023-03-11T15:30:38;2.90;;;2.60;;
9904;SDS011;4991;43.566;27.820;2023-03-11T15:33:18;3.43;;;2.97;;
9904;SDS011;4991;43.566;27.820;2023-03-11T15:35:46;2.83;;;2.50;;
9904;SDS011;4991;43.566;27.820;2023-03-11T15:38:20;4.57;;;3.10;;
9904;SDS011;4991;43.566;27.820;2023-03-11T15:41:08;3.03;;;2.73;;
9904;SDS011;4991;43.566;27.820;2023-03-11T15:43:53;4.23;;;3.20;;
9904;SDS011;4991;43.566;27.820;2023-03-11T15:46:18;3.17;;;2.87;;
9904;SDS011;4991;43.566;27.820;2023-03-11T15:48:44;3.17;;;2.87;;
9904;SDS011;4991;43.566;27.820;2023-03-11T15:51:17;5.40;;;3.73;;
9904;SDS011;4991;43.566;27.820;2023-03-11T15:53:44;3.93;;;2.60;;
9904;SDS011;4991;43.566;27.820;2023-03-11T15:56:11;2.80;;;2.50;;
9904;SDS011;4991;43.566;27.820;2023-03-11T15:58:42;2.60;;;2.40;;
9904;SDS011;4991;43.566;27.820;2023-03-11T16:01:08;3.50;;;2.53;;
9904;SDS011;4991;43.566;27.820;2023-03-11T16:03:34;3.37;;;2.93;;
9904;SDS011;4991;43.566;27.820;2023-03-11T16:05:59;4.20;;;3.00;;
9904;SDS011;4991;43.566;27.820;2023-03-11T16:08:25;3.00;;;2.70;;
9904;SDS011;4991;43.566;27.820;2023-03-11T16:10:51;2.80;;;2.50;;
9904;SDS011;4991;43.566;27.820;2023-03-11T16:13:16;3.47;;;3.17;;
9904;SDS011;4991;43.566;27.820;2023-03-11T16:15:42;2.93;;;2.63;;
9904;SDS011;4991;43.566;27.820;2023-03-11T16:18:10;4.00;;;2.70;;
9904;SDS011;4991;43.566;27.820;2023-03-11T16:20:37;4.30;;;2.50;;
9904;SDS011;4991;43.566;27.820;2023-03-11T16:23:16;2.50;;;2.30;;
9904;SDS011;4991;43.566;27.820;2023-03-11T16:25:42;3.03;;;1.67;;
9904;SDS011;4991;43.566;27.820;2023-03-11T16:28:10;1.83;;;1.73;;
9904;SDS011;4991;43.566;27.820;2023-03-11T16:30:38;2.00;;;1.70;;
9904;SDS011;4991;43.566;27.820;2023-03-11T16:33:04;1.70;;;1.60;;
9904;SDS011;4991;43.566;27.820;2023-03-11T16:35:30;2.53;;;1.63;;
9904;SDS011;4991;43.566;27.820;2023-03-11T16:37:56;2.57;;;1.90;;
9904;SDS011;4991;43.566;27.820;2023-03-11T16:40:23;2.90;;;1.90;;
9904;SDS011;4991;43.566;27.820;2023-03-11T16:43:01;2.20;;;1.93;;
9904;SDS011;4991;43.566;27.820;2023-03-11T16:45:30;1.77;;;1.67;;
9904;SDS011;4991;43.566;27.820;2023-03-11T16:47:56;1.90;;;1.70;;
9904;SDS011;4991;43.566;27.820;2023-03-11T16:50:22;1.70;;;1.60;;
9904;SDS011;4991;43.566;27.820;2023-03-11T16:52:51;3.13;;;1.60;;
9904;SDS011;4991;43.566;27.820;2023-03-11T16:55:18;2.33;;;1.93;;